createdAt,value
2022-11-17T00:00:39.702Z,92690.69
2022-11-17T00:03:06.070Z,92683.38
2022-11-17T00:05:32.497Z,92680.19
2022-11-17T00:07:58.927Z,92681.06
2022-11-17T00:10:25.378Z,92678.50
2022-11-17T00:13:10.543Z,92676.22
2022-11-17T00:15:37.006Z,92672.56
2022-11-17T00:18:26.812Z,92668.75
2022-11-17T00:21:11.837Z,92659.63
2022-11-17T00:23:47.321Z,92662.03
2022-11-17T00:26:25.016Z,92669.03
2022-11-17T00:28:53.444Z,92661.13
2022-11-17T00:31:39.104Z,92658.88
2022-11-17T00:34:06.323Z,92655.69
2022-11-17T00:36:38.476Z,92655.06
2022-11-17T00:39:05.795Z,92646.22
2022-11-17T00:41:32.250Z,92649.75
2022-11-17T00:43:58.795Z,92653.41
2022-11-17T00:46:25.674Z,92656.13
2022-11-17T00:48:52.126Z,92663.44
2022-11-17T00:51:19.112Z,92667.09
2022-11-17T00:53:46.466Z,92661.59
2022-11-17T00:56:13.329Z,92654.59
2022-11-17T00:58:39.712Z,92634.97
2022-11-17T01:01:06.676Z,92610.59
2022-11-17T01:03:35.824Z,92590.22
2022-11-17T01:06:07.366Z,92592.94
2022-11-17T01:08:34.532Z,92603.28
2022-11-17T01:11:05.920Z,92628.28
2022-11-17T01:13:32.646Z,92643.03
2022-11-17T01:16:11.903Z,92629.19
2022-11-17T01:18:39.139Z,92629.94
2022-11-17T01:21:11.630Z,92620.06
2022-11-17T01:23:41.228Z,92617.31
2022-11-17T01:26:13.212Z,92607.25
2022-11-17T01:28:41.455Z,92605.16
2022-11-17T01:31:11.344Z,92609.69
2022-11-17T01:33:38.324Z,92611.22
2022-11-17T01:36:07.891Z,92602.84
2022-11-17T01:38:34.506Z,92601.91
2022-11-17T01:41:02.573Z,92609.84
2022-11-17T01:43:40.935Z,92612.59
2022-11-17T01:46:26.333Z,92598.56
2022-11-17T01:48:57.259Z,92597.34
2022-11-17T01:51:24.018Z,92596.28
2022-11-17T01:53:51.269Z,92574.97
2022-11-17T01:56:24.616Z,92575.13
2022-11-17T01:58:58.243Z,92567.19
2022-11-17T02:01:24.753Z,92565.84
2022-11-17T02:03:51.590Z,92561.88
2022-11-17T02:06:28.655Z,92564.63
2022-11-17T02:08:55.157Z,92579.25
2022-11-17T02:11:22.861Z,92565.25
2022-11-17T02:13:53.145Z,92550.16
2022-11-17T02:16:19.615Z,92554.88
2022-11-17T02:18:47.385Z,92532.19
2022-11-17T02:21:22.664Z,92534.94
2022-11-17T02:24:20.449Z,92536.66
2022-11-17T02:27:22.260Z,92532.25
2022-11-17T02:29:54.389Z,92534.22
2022-11-17T02:32:58.178Z,92515.50
2022-11-17T02:35:27.653Z,92500.59
2022-11-17T02:38:15.138Z,92487.06
2022-11-17T02:40:48.170Z,92470.78
2022-11-17T02:43:38.792Z,92464.84
2022-11-17T02:46:16.291Z,92470.31
2022-11-17T02:48:51.848Z,92477.78
2022-11-17T02:51:23.618Z,92491.16
2022-11-17T02:53:53.369Z,92495.72
2022-11-17T02:56:20.089Z,92493.44
2022-11-17T02:58:50.728Z,92501.50
2022-11-17T03:01:17.184Z,92497.56
2022-11-17T03:04:05.420Z,92502.25
2022-11-17T03:06:51.713Z,92491.63
2022-11-17T03:09:39.333Z,92476.09
2022-11-17T03:12:22.011Z,92463.47
2022-11-17T03:15:27.997Z,92449.03
2022-11-17T03:18:08.119Z,92438.53
2022-11-17T03:20:56.026Z,92440.66
2022-11-17T03:23:36.751Z,92439.28
2022-11-17T03:26:09.949Z,92426.22
2022-11-17T03:28:36.992Z,92416.78
2022-11-17T03:31:07.028Z,92371.16
2022-11-17T03:33:35.100Z,92380.16
2022-11-17T03:36:06.169Z,92416.34
2022-11-17T03:38:37.500Z,92414.53
2022-11-17T03:41:07.106Z,92441.28
2022-11-17T03:43:34.018Z,92442.47
2022-11-17T03:46:09.241Z,92434.28
2022-11-17T03:48:42.843Z,92449.78
2022-11-17T03:51:25.521Z,92451.31
2022-11-17T03:53:53.853Z,92438.41
2022-11-17T03:56:54.097Z,92432.91
2022-11-17T03:59:30.554Z,92444.63
2022-11-17T04:01:57.434Z,92450.72
2022-11-17T04:04:24.064Z,92444.91
2022-11-17T04:06:53.092Z,92450.09
2022-11-17T04:09:24.219Z,92470.31
2022-11-17T04:12:09.607Z,92468.19
2022-11-17T04:14:54.514Z,92470.78
2022-11-17T04:17:21.220Z,92475.19
2022-11-17T04:19:48.606Z,92473.97
2022-11-17T04:22:14.992Z,92472.00
2022-11-17T04:24:41.382Z,92468.50
2022-11-17T04:27:26.968Z,92473.69
2022-11-17T04:29:53.339Z,92462.84
2022-11-17T04:32:19.747Z,92454.66
2022-11-17T04:34:46.123Z,92449.16
2022-11-17T04:37:17.382Z,92451.75
2022-11-17T04:39:45.689Z,92444.00
2022-11-17T04:42:12.242Z,92451.47
2022-11-17T04:44:38.691Z,92440.50
2022-11-17T04:47:06.834Z,92435.34
2022-11-17T04:49:33.319Z,92426.97
2022-11-17T04:52:00.375Z,92422.09
2022-11-17T04:54:26.816Z,92414.66
2022-11-17T04:56:54.591Z,92420.72
2022-11-17T04:59:21.292Z,92422.84
2022-11-17T05:01:48.026Z,92417.22
2022-11-17T05:04:35.708Z,92413.88
2022-11-17T05:07:02.201Z,92401.88
2022-11-17T05:09:28.627Z,92403.53
2022-11-17T05:12:13.626Z,92409.03
2022-11-17T05:14:40.120Z,92400.38
2022-11-17T05:17:10.023Z,92405.38
2022-11-17T05:19:48.196Z,92408.59
2022-11-17T05:22:41.336Z,92408.44
2022-11-17T05:25:09.196Z,92426.81
2022-11-17T05:27:36.242Z,92430.78
2022-11-17T05:30:05.923Z,92407.53
2022-11-17T05:32:32.630Z,92415.59
2022-11-17T05:34:59.051Z,92414.06
2022-11-17T05:37:25.437Z,92423.78
2022-11-17T05:39:51.847Z,92412.09
2022-11-17T05:42:18.260Z,92423.50
2022-11-17T05:44:44.701Z,92425.63
2022-11-17T05:47:11.116Z,92414.81
2022-11-17T05:49:37.927Z,92408.44
2022-11-17T05:52:04.467Z,92412.84
2022-11-17T05:54:31.186Z,92429.13
2022-11-17T05:57:08.540Z,92432.16
2022-11-17T05:59:40.286Z,92456.78
2022-11-17T06:02:21.281Z,92451.16
2022-11-17T06:04:49.400Z,92451.47
2022-11-17T06:07:17.913Z,92453.00
2022-11-17T06:09:45.896Z,92460.75
2022-11-17T06:12:12.450Z,92440.38
2022-11-17T06:14:39.702Z,92445.56
2022-11-17T06:17:13.479Z,92447.50
2022-11-17T06:19:46.518Z,92436.88
2022-11-17T06:22:13.647Z,92442.94
2022-11-17T06:24:45.068Z,92445.84
2022-11-17T06:27:15.793Z,92436.44
2022-11-17T06:29:44.978Z,92428.66
2022-11-17T06:32:17.364Z,92436.09
2022-11-17T06:34:51.983Z,92433.19
2022-11-17T06:37:21.656Z,92426.47
2022-11-17T06:39:48.064Z,92426.16
2022-11-17T06:42:14.430Z,92425.06
2022-11-17T06:44:40.885Z,92423.31
2022-11-17T06:47:07.270Z,92417.81
2022-11-17T06:49:33.679Z,92427.38
2022-11-17T06:52:00.127Z,92432.84
2022-11-17T06:54:26.594Z,92429.44
2022-11-17T06:56:53.368Z,92434.28
2022-11-17T06:59:19.750Z,92444.16
2022-11-17T07:01:46.177Z,92432.41
2022-11-17T07:04:12.675Z,92440.44
2022-11-17T07:06:39.433Z,92445.13
2022-11-17T07:09:05.898Z,92432.31
2022-11-17T07:11:35.786Z,92424.06
2022-11-17T07:14:02.198Z,92433.91
2022-11-17T07:16:30.640Z,92436.63
2022-11-17T07:18:59.180Z,92431.41
2022-11-17T07:21:25.726Z,92435.38
2022-11-17T07:23:52.365Z,92430.13
2022-11-17T07:26:18.759Z,92427.66
2022-11-17T07:28:45.147Z,92435.13
2022-11-17T07:31:11.555Z,92429.94
2022-11-17T07:33:38.032Z,92436.66
2022-11-17T07:36:11.615Z,92443.34
2022-11-17T07:38:40.098Z,92443.78
2022-11-17T07:41:08.781Z,92431.00
2022-11-17T07:43:36.271Z,92443.03
2022-11-17T07:46:12.479Z,92435.13
2022-11-17T07:48:39.815Z,92425.81
2022-11-17T07:51:06.976Z,92429.81
2022-11-17T07:53:35.060Z,92425.38
2022-11-17T07:56:10.149Z,92425.38
2022-11-17T07:58:37.751Z,92409.19
2022-11-17T08:01:15.436Z,92401.56
2022-11-17T08:03:44.389Z,92394.34
2022-11-17T08:06:11.010Z,92378.16
2022-11-17T08:08:38.782Z,92388.53
2022-11-17T08:11:10.656Z,92408.22
2022-11-17T08:13:38.357Z,92415.78
2022-11-17T08:16:06.330Z,92420.03
2022-11-17T08:18:33.661Z,92423.84
2022-11-17T08:21:02.345Z,92419.50
2022-11-17T08:23:28.750Z,92422.66
2022-11-17T08:25:55.155Z,92417.75
2022-11-17T08:28:22.405Z,92404.13
2022-11-17T08:30:48.860Z,92411.25
2022-11-17T08:33:15.332Z,92415.72
2022-11-17T08:35:41.782Z,92416.44
2022-11-17T08:38:11.472Z,92420.56
2022-11-17T08:40:38.560Z,92411.38
2022-11-17T08:43:05.086Z,92430.19
2022-11-17T08:45:31.588Z,92426.81
2022-11-17T08:47:58.359Z,92427.84
2022-11-17T08:50:25.358Z,92425.03
2022-11-17T08:52:52.711Z,92415.34
2022-11-17T08:55:19.180Z,92416.22
2022-11-17T08:57:45.658Z,92419.78
2022-11-17T09:00:12.542Z,92414.06
2022-11-17T09:02:38.990Z,92434.63
2022-11-17T09:05:06.141Z,92424.03
2022-11-17T09:07:35.020Z,92419.72
2022-11-17T09:10:03.415Z,92417.69
2022-11-17T09:12:29.815Z,92429.69
2022-11-17T09:14:56.174Z,92440.75
2022-11-17T09:17:22.882Z,92438.16
2022-11-17T09:19:49.365Z,92448.75
2022-11-17T09:22:15.788Z,92458.50
2022-11-17T09:24:42.215Z,92458.28
2022-11-17T09:27:08.715Z,92465.00
2022-11-17T09:29:35.133Z,92476.59
2022-11-17T09:32:01.847Z,92460.25
2022-11-17T09:34:29.266Z,92470.00
2022-11-17T09:36:55.790Z,92468.47
2022-11-17T09:39:22.178Z,92472.28
2022-11-17T09:41:51.424Z,92473.91
2022-11-17T09:44:39.549Z,92476.94
2022-11-17T09:47:28.915Z,92489.72
2022-11-17T09:50:26.485Z,92498.69
2022-11-17T09:53:01.350Z,92506.94
2022-11-17T09:55:34.130Z,92511.50
2022-11-17T09:58:48.056Z,92513.88
2022-11-17T10:01:23.803Z,92514.19
2022-11-17T10:03:51.489Z,92521.34
2022-11-17T10:06:22.888Z,92520.72
2022-11-17T10:08:58.232Z,92499.25
2022-11-17T10:11:32.463Z,92501.09
2022-11-17T10:14:07.890Z,92499.69
2022-11-17T10:16:35.767Z,92502.75
2022-11-17T10:19:29.737Z,92505.75
2022-11-17T10:22:02.397Z,92508.38
2022-11-17T10:24:38.115Z,92509.88
2022-11-17T10:27:18.219Z,92492.75
2022-11-17T10:30:13.817Z,92485.38
2022-11-17T10:32:52.296Z,92489.19
2022-11-17T10:35:32.297Z,92491.47
2022-11-17T10:38:20.145Z,92494.50
2022-11-17T10:40:50.224Z,92507.91
2022-11-17T10:43:25.604Z,92497.94
2022-11-17T10:46:18.488Z,92500.03
2022-11-17T10:49:33.657Z,92488.00
2022-11-17T10:52:17.579Z,92496.78
2022-11-17T10:54:44.691Z,92486.56
2022-11-17T10:57:20.198Z,92490.00
2022-11-17T10:59:57.167Z,92480.59
2022-11-17T11:02:31.619Z,92479.94
2022-11-17T11:05:07.042Z,92492.72
2022-11-17T11:07:33.747Z,92488.78
2022-11-17T11:10:13.232Z,92485.19
2022-11-17T11:12:45.546Z,92481.59
2022-11-17T11:15:23.995Z,92476.47
2022-11-17T11:17:51.480Z,92473.88
2022-11-17T11:20:24.072Z,92473.75
2022-11-17T11:23:01.262Z,92471.84
2022-11-17T11:25:51.877Z,92469.94
2022-11-17T11:28:54.309Z,92476.34
2022-11-17T11:31:35.982Z,92465.13
2022-11-17T11:34:27.465Z,92464.47
2022-11-17T11:36:55.392Z,92463.50
2022-11-17T11:39:46.686Z,92456.47
2022-11-17T11:42:51.768Z,92464.66
2022-11-17T11:45:30.252Z,92450.81
2022-11-17T11:48:05.683Z,92458.22
2022-11-17T11:50:41.494Z,92473.53
2022-11-17T11:53:18.990Z,92472.41
2022-11-17T11:55:49.432Z,92475.97
2022-11-17T11:58:24.089Z,92450.88
2022-11-17T12:00:55.321Z,92461.56
2022-11-17T12:03:25.348Z,92457.63
2022-11-17T12:06:29.747Z,92469.50
2022-11-17T12:09:06.143Z,92457.75
2022-11-17T12:11:52.476Z,92462.22
2022-11-17T12:14:19.452Z,92457.09
2022-11-17T12:16:48.021Z,92462.84
2022-11-17T12:19:50.835Z,92466.06
2022-11-17T12:22:29.517Z,92453.97
2022-11-17T12:24:59.395Z,92457.72
2022-11-17T12:27:35.085Z,92462.25
2022-11-17T12:30:33.427Z,92452.22
2022-11-17T12:33:01.232Z,92463.22
2022-11-17T12:35:34.370Z,92464.50
2022-11-17T12:38:19.965Z,92472.59
2022-11-17T12:40:48.644Z,92460.53
2022-11-17T12:43:15.037Z,92470.25
2022-11-17T12:45:53.597Z,92468.72
2022-11-17T12:48:33.498Z,92475.78
2022-11-17T12:51:39.706Z,92473.94
2022-11-17T12:54:25.943Z,92467.53
2022-11-17T12:57:03.920Z,92477.63
2022-11-17T12:59:46.472Z,92481.78
2022-11-17T13:02:30.708Z,92485.81
2022-11-17T13:05:10.784Z,92488.06
2022-11-17T13:07:37.243Z,92502.28
2022-11-17T13:10:03.946Z,92480.41
2022-11-17T13:12:33.034Z,92473.91
2022-11-17T13:15:05.159Z,92481.22
2022-11-17T13:17:42.770Z,92467.97
2022-11-17T13:20:28.481Z,92470.44
2022-11-17T13:23:06.697Z,92463.19
2022-11-17T13:25:34.251Z,92464.81
2022-11-17T13:28:04.713Z,92452.53
2022-11-17T13:30:32.557Z,92460.09
2022-11-17T13:33:02.165Z,92458.84
2022-11-17T13:35:34.736Z,92460.31
2022-11-17T13:38:12.013Z,92461.22
2022-11-17T13:40:41.546Z,92454.50
2022-11-17T13:43:12.790Z,92461.25
2022-11-17T13:45:40.352Z,92456.44
2022-11-17T13:48:06.826Z,92474.38
2022-11-17T13:50:35.596Z,92487.03
2022-11-17T13:53:11.256Z,92455.38
2022-11-17T13:55:44.427Z,92454.00
2022-11-17T13:58:36.956Z,92470.88
2022-11-17T14:01:03.959Z,92480.31
2022-11-17T14:03:41.881Z,92469.41
2022-11-17T14:06:13.599Z,92467.06
2022-11-17T14:08:42.975Z,92467.13
2022-11-17T14:11:12.218Z,92484.41
2022-11-17T14:13:44.782Z,92479.69
2022-11-17T14:16:21.683Z,92493.66
2022-11-17T14:18:57.104Z,92485.94
2022-11-17T14:21:23.552Z,92493.22
2022-11-17T14:24:01.758Z,92478.09
2022-11-17T14:26:28.881Z,92500.69
2022-11-17T14:28:58.062Z,92490.44
2022-11-17T14:31:24.500Z,92475.66
2022-11-17T14:33:50.900Z,92488.44
2022-11-17T14:36:17.968Z,92494.34
2022-11-17T14:38:45.452Z,92480.09
2022-11-17T14:41:15.005Z,92478.41
2022-11-17T14:43:41.453Z,92492.69
2022-11-17T14:46:18.756Z,92479.59
2022-11-17T14:48:45.428Z,92482.03
2022-11-17T14:51:11.895Z,92477.50
2022-11-17T14:53:41.887Z,92481.94
2022-11-17T14:56:09.674Z,92469.25
2022-11-17T14:58:36.275Z,92466.25
2022-11-17T15:01:17.008Z,92465.38
2022-11-17T15:03:44.067Z,92472.66
2022-11-17T15:06:15.266Z,92467.97
2022-11-17T15:08:45.088Z,92460.41
2022-11-17T15:11:17.186Z,92457.88
2022-11-17T15:13:43.976Z,92462.34
2022-11-17T15:16:10.724Z,92465.53
2022-11-17T15:18:37.223Z,92458.59
2022-11-17T15:21:09.768Z,92456.41
2022-11-17T15:23:38.497Z,92454.28
2022-11-17T15:26:06.569Z,92454.00
2022-11-17T15:28:33.286Z,92455.34
2022-11-17T15:30:59.908Z,92460.06
2022-11-17T15:33:26.364Z,92467.81
2022-11-17T15:36:03.321Z,92465.22
2022-11-17T15:38:31.373Z,92459.03
2022-11-17T15:40:57.887Z,92463.94
2022-11-17T15:43:28.996Z,92464.59
2022-11-17T15:46:07.486Z,92463.00
2022-11-17T15:48:35.224Z,92469.56
2022-11-17T15:51:05.388Z,92465.00
2022-11-17T15:53:34.360Z,92470.88
2022-11-17T15:56:33.507Z,92470.03
2022-11-17T15:59:03.121Z,92475.81
2022-11-17T16:01:33.734Z,92470.19
2022-11-17T16:04:05.914Z,92474.97
2022-11-17T16:06:34.741Z,92476.28
2022-11-17T16:09:01.340Z,92477.81
2022-11-17T16:11:28.107Z,92481.50
2022-11-17T16:13:55.814Z,92475.09
2022-11-17T16:16:23.669Z,92467.28
2022-11-17T16:18:50.166Z,92465.03
2022-11-17T16:21:18.855Z,92456.13
2022-11-17T16:23:47.765Z,92457.63
2022-11-17T16:26:16.388Z,92457.63
2022-11-17T16:28:42.909Z,92459.47
2022-11-17T16:31:16.846Z,92459.81
2022-11-17T16:33:50.564Z,92457.22
2022-11-17T16:36:18.581Z,92451.13
2022-11-17T16:39:02.146Z,92456.78
2022-11-17T16:41:32.412Z,92451.59
2022-11-17T16:43:59.614Z,92452.25
2022-11-17T16:46:29.366Z,92446.59
2022-11-17T16:48:57.253Z,92458.13
2022-11-17T16:51:24.716Z,92446.09
2022-11-17T16:53:56.127Z,92452.69
2022-11-17T16:56:22.967Z,92453.06
2022-11-17T16:58:50.187Z,92457.84
2022-11-17T17:01:22.195Z,92453.28
2022-11-17T17:03:48.637Z,92451.75
2022-11-17T17:06:17.283Z,92451.34
2022-11-17T17:08:44.689Z,92454.25
2022-11-17T17:11:13.777Z,92454.59
2022-11-17T17:13:41.227Z,92452.34
2022-11-17T17:16:10.260Z,92450.81
2022-11-17T17:18:37.107Z,92450.81
2022-11-17T17:21:04.076Z,92454.19
2022-11-17T17:23:31.297Z,92453.44
2022-11-17T17:26:16.735Z,92433.59
2022-11-17T17:28:44.636Z,92448.53
2022-11-17T17:31:16.682Z,92445.19
2022-11-17T17:33:46.210Z,92439.53
2022-11-17T17:36:24.382Z,92440.31
2022-11-17T17:38:55.883Z,92438.03
2022-11-17T17:41:24.885Z,92452.13
2022-11-17T17:44:02.295Z,92442.84
2022-11-17T17:46:29.866Z,92446.09
2022-11-17T17:48:57.463Z,92453.13
2022-11-17T17:51:25.651Z,92448.25
2022-11-17T17:53:54.156Z,92454.09
2022-11-17T17:56:21.986Z,92456.28
2022-11-17T17:58:48.898Z,92453.25
2022-11-17T18:01:24.463Z,92462.59
2022-11-17T18:03:53.616Z,92458.13
2022-11-17T18:06:21.970Z,92450.31
2022-11-17T18:08:48.945Z,92463.03
2022-11-17T18:11:18.577Z,92454.44
2022-11-17T18:13:48.440Z,92457.81
2022-11-17T18:16:23.584Z,92457.41
2022-11-17T18:18:54.975Z,92463.34
2022-11-17T18:21:21.460Z,92456.63
2022-11-17T18:23:47.860Z,92460.00
2022-11-17T18:26:16.364Z,92474.19
2022-11-17T18:28:44.844Z,92469.72
2022-11-17T18:31:11.301Z,92467.56
2022-11-17T18:33:37.877Z,92465.38
2022-11-17T18:36:09.179Z,92463.53
2022-11-17T18:38:36.657Z,92453.91
2022-11-17T18:41:08.359Z,92453.44
2022-11-17T18:43:35.632Z,92457.16
2022-11-17T18:46:07.029Z,92449.34
2022-11-17T18:48:35.215Z,92454.56
2022-11-17T18:51:19.033Z,92458.66
2022-11-17T18:53:46.871Z,92444.91
2022-11-17T18:56:15.781Z,92453.44
2022-11-17T18:58:42.982Z,92455.31
2022-11-17T19:01:18.298Z,92449.66
2022-11-17T19:03:47.786Z,92450.53
2022-11-17T19:06:16.502Z,92451.59
2022-11-17T19:08:43.056Z,92452.72
2022-11-17T19:11:10.803Z,92457.91
2022-11-17T19:13:39.196Z,92458.22
2022-11-17T19:16:08.203Z,92455.63
2022-11-17T19:18:35.734Z,92455.53
2022-11-17T19:21:16.534Z,92469.66
2022-11-17T19:23:51.009Z,92473.31
2022-11-17T19:26:33.321Z,92475.16
2022-11-17T19:29:02.854Z,92476.25
2022-11-17T19:31:29.703Z,92478.41
2022-11-17T19:33:57.714Z,92487.41
2022-11-17T19:36:32.210Z,92497.09
2022-11-17T19:39:00.918Z,92502.94
2022-11-17T19:41:30.433Z,92509.56
2022-11-17T19:43:58.624Z,92510.75
2022-11-17T19:46:26.975Z,92518.56
2022-11-17T19:48:54.581Z,92521.16
2022-11-17T19:51:23.656Z,92528.09
2022-11-17T19:53:53.634Z,92541.97
2022-11-17T19:56:21.094Z,92541.53
2022-11-17T19:58:48.664Z,92566.69
2022-11-17T20:01:17.345Z,92564.19
2022-11-17T20:03:44.230Z,92578.41
2022-11-17T20:06:12.637Z,92579.88
2022-11-17T20:08:39.522Z,92583.53
2022-11-17T20:11:12.313Z,92583.53
2022-11-17T20:13:39.659Z,92586.09
2022-11-17T20:16:11.963Z,92568.75
2022-11-17T20:18:39.400Z,92576.00
2022-11-17T20:21:07.038Z,92570.66
2022-11-17T20:23:35.171Z,92568.28
2022-11-17T20:26:10.336Z,92560.69
2022-11-17T20:28:38.144Z,92561.31
2022-11-17T20:31:16.866Z,92550.16
2022-11-17T20:33:43.620Z,92537.38
2022-11-17T20:36:13.035Z,92542.72
2022-11-17T20:38:40.022Z,92541.31
2022-11-17T20:41:07.425Z,92536.53
2022-11-17T20:43:34.626Z,92540.66
2022-11-17T20:46:02.659Z,92531.81
2022-11-17T20:48:30.263Z,92525.72
2022-11-17T20:50:57.325Z,92528.53
2022-11-17T20:53:24.082Z,92536.03
2022-11-17T20:55:50.542Z,92528.66
2022-11-17T20:58:16.956Z,92535.81
2022-11-17T21:00:43.417Z,92535.19
2022-11-17T21:03:09.855Z,92540.81
2022-11-17T21:05:36.243Z,92533.00
2022-11-17T21:08:02.691Z,92533.78
2022-11-17T21:10:29.065Z,92538.22
2022-11-17T21:12:55.452Z,92542.63
2022-11-17T21:15:21.826Z,92540.38
2022-11-17T21:18:06.858Z,92541.78
2022-11-17T21:20:33.928Z,92540.16
2022-11-17T21:23:00.413Z,92546.00
2022-11-17T21:25:26.818Z,92552.25
2022-11-17T21:27:53.279Z,92540.34
2022-11-17T21:30:19.783Z,92540.66
2022-11-17T21:32:46.187Z,92552.03
2022-11-17T21:35:12.647Z,92557.41
2022-11-17T21:37:39.062Z,92553.19
2022-11-17T21:40:06.167Z,92569.28
2022-11-17T21:42:33.064Z,92570.56
2022-11-17T21:44:59.460Z,92577.03
2022-11-17T21:47:25.877Z,92574.28
2022-11-17T21:49:52.265Z,92574.16
2022-11-17T21:52:18.668Z,92581.53
2022-11-17T21:54:45.099Z,92572.09
2022-11-17T21:57:11.506Z,92576.09
2022-11-17T21:59:37.890Z,92573.03
2022-11-17T22:02:04.333Z,92562.72
2022-11-17T22:04:30.703Z,92579.50
2022-11-17T22:06:57.142Z,92570.53
2022-11-17T22:09:23.558Z,92569.75
2022-11-17T22:11:51.370Z,92580.13
2022-11-17T22:14:19.583Z,92580.75
2022-11-17T22:16:51.909Z,92568.28
2022-11-17T22:19:20.546Z,92589.50
2022-11-17T22:21:49.369Z,92587.22
2022-11-17T22:24:16.052Z,92591.34
2022-11-17T22:26:43.692Z,92590.00
2022-11-17T22:29:12.869Z,92582.06
2022-11-17T22:31:39.439Z,92593.41
2022-11-17T22:34:05.831Z,92594.81
2022-11-17T22:36:32.369Z,92596.81
2022-11-17T22:38:58.832Z,92600.19
2022-11-17T22:41:25.283Z,92602.63
2022-11-17T22:43:53.287Z,92606.28
2022-11-17T22:46:21.352Z,92603.25
2022-11-17T22:48:48.214Z,92597.28
2022-11-17T22:51:37.688Z,92607.69
2022-11-17T22:54:05.434Z,92610.59
2022-11-17T22:56:32.846Z,92614.25
2022-11-17T22:58:59.943Z,92616.06
2022-11-17T23:01:26.775Z,92625.69
2022-11-17T23:03:53.266Z,92622.22
2022-11-17T23:06:19.768Z,92630.28
2022-11-17T23:08:46.205Z,92622.84
2022-11-17T23:11:36.131Z,92627.25
2022-11-17T23:13:59.442Z,92623.91
2022-11-17T23:16:25.952Z,92620.56
2022-11-17T23:18:53.625Z,92612.03
2022-11-17T23:21:20.091Z,92604.25
2022-11-17T23:23:46.705Z,92599.94
2022-11-17T23:26:13.953Z,92598.09
2022-11-17T23:28:41.797Z,92596.72
2022-11-17T23:31:13.476Z,92595.66
2022-11-17T23:33:45.479Z,92589.06
2022-11-17T23:36:19.879Z,92579.13
2022-11-17T23:38:46.993Z,92571.78
2022-11-17T23:41:15.660Z,92574.28
2022-11-17T23:43:42.820Z,92563.91
2022-11-17T23:46:12.292Z,92550.59
2022-11-17T23:48:39.259Z,92568.47
2022-11-17T23:51:07.072Z,92558.09
2022-11-17T23:53:33.609Z,92544.66
2022-11-17T23:56:01.153Z,92550.16
2022-11-17T23:58:28.260Z,92558.53
